createdAt,value
2017-01-20T00:00:15.959Z,96.2
2017-01-20T00:00:57.544Z,96.39
2017-01-20T00:01:39.218Z,96.39
2017-01-20T00:02:20.921Z,95.92
2017-01-20T00:03:02.627Z,96.58
2017-01-20T00:03:44.224Z,95.92
2017-01-20T00:04:25.933Z,95.92
2017-01-20T00:05:07.632Z,96.39
2017-01-20T00:05:49.332Z,96.58
2017-01-20T00:06:31.061Z,96.58
2017-01-20T00:08:20.543Z,96.3
2017-01-20T00:09:02.244Z,96.3
2017-01-20T00:10:51.607Z,96.11
2017-01-20T00:11:33.273Z,96.39
2017-01-20T00:13:23.512Z,96.2
2017-01-20T00:14:05.136Z,96.2
2017-01-20T00:16:20.458Z,96.01
2017-01-20T00:17:02.054Z,96.01
2017-01-20T00:17:43.820Z,96.39
2017-01-20T00:19:38.386Z,96.2
2017-01-20T00:21:33.059Z,96.2
2017-01-20T00:22:14.763Z,96.39
2017-01-20T00:25:43.154Z,96.2
2017-01-20T00:26:24.746Z,96.2
2017-01-20T00:28:19.359Z,96.48
2017-01-20T00:29:01.099Z,96.58
2017-01-20T00:29:42.660Z,96.86
2017-01-20T00:31:37.325Z,97.14
2017-01-20T00:32:18.953Z,97.05
2017-01-20T00:33:00.570Z,96.86
2017-01-20T00:33:42.352Z,96.58
2017-01-20T00:34:23.888Z,96.77
2017-01-20T00:35:05.645Z,96.77
2017-01-20T00:37:05.685Z,96.58
2017-01-20T00:37:47.382Z,96.58
2017-01-20T00:38:29.140Z,96.58
2017-01-20T00:39:10.927Z,96.58
2017-01-20T00:41:26.254Z,96.86
2017-01-20T00:42:08.022Z,96.67
2017-01-20T00:42:49.779Z,96.67
2017-01-20T00:43:31.529Z,96.58
2017-01-20T00:44:13.252Z,96.86
2017-01-20T00:44:55.013Z,96.58
2017-01-20T00:45:36.767Z,96.77
2017-01-20T00:46:18.491Z,96.77
2017-01-20T00:47:00.199Z,96.58
2017-01-20T00:47:41.950Z,96.67
2017-01-20T00:48:23.697Z,96.77
2017-01-20T00:49:05.277Z,96.67
2017-01-20T00:51:20.649Z,96.67
2017-01-20T00:52:02.249Z,96.86
2017-01-20T00:52:43.965Z,96.67
2017-01-20T00:53:25.771Z,96.67
2017-01-20T00:54:07.412Z,96.58
2017-01-20T00:54:49.092Z,96.2
2017-01-20T00:55:30.783Z,96.39
2017-01-20T00:56:12.395Z,96.95
2017-01-20T00:56:54.153Z,96.58
2017-01-20T00:57:35.701Z,96.67
2017-01-20T00:58:17.480Z,97.05
2017-01-20T00:58:59.220Z,97.05
2017-01-20T00:59:40.937Z,96.77
2017-01-20T01:01:35.574Z,97.33
2017-01-20T01:02:17.169Z,97.05
2017-01-20T01:02:58.753Z,97.05
2017-01-20T01:03:40.145Z,97.05
2017-01-20T01:06:00.598Z,96.86
2017-01-20T01:06:42.273Z,97.33
2017-01-20T01:07:23.496Z,97.33
2017-01-20T01:08:05.206Z,97.14
2017-01-20T01:09:54.495Z,97.05
2017-01-20T01:10:36.292Z,96.86
2017-01-20T01:11:17.937Z,96.86
2017-01-20T01:11:59.684Z,96.86
2017-01-20T01:12:41.319Z,96.95
2017-01-20T01:13:22.654Z,97.05
2017-01-20T01:14:04.317Z,97.33
2017-01-20T01:14:45.938Z,97.33
2017-01-20T01:15:27.588Z,97.05
2017-01-20T01:17:42.914Z,97.05
2017-01-20T01:18:24.660Z,96.86
2017-01-20T01:19:06.379Z,96.77
2017-01-20T01:19:48.131Z,97.05
2017-01-20T01:20:29.810Z,96.86
2017-01-20T01:21:11.551Z,97.05
2017-01-20T01:21:53.335Z,97.05
2017-01-20T01:22:35.065Z,96.86
2017-01-20T01:23:16.859Z,96.86
2017-01-20T01:23:58.619Z,97.24
2017-01-20T01:24:40.350Z,96.77
2017-01-20T01:25:22.097Z,97.24
2017-01-20T01:26:03.882Z,96.86
2017-01-20T01:26:45.566Z,96.95
2017-01-20T01:27:26.960Z,97.14
2017-01-20T01:28:08.732Z,97.24
2017-01-20T01:28:50.113Z,97.24
2017-01-20T01:29:31.850Z,97.24
2017-01-20T01:30:13.537Z,97.14
2017-01-20T01:30:55.300Z,96.86
2017-01-20T01:31:36.998Z,96.95
2017-01-20T01:32:18.753Z,97.24
2017-01-20T01:33:00.219Z,97.24
2017-01-20T01:33:41.895Z,97.14
2017-01-20T01:35:36.566Z,97.24
2017-01-20T01:36:18.257Z,97.24
2017-01-20T01:36:59.927Z,97.05
2017-01-20T01:37:41.636Z,97.05
2017-01-20T01:38:23.238Z,97.14
2017-01-20T01:39:04.976Z,96.77
2017-01-20T01:40:54.370Z,96.67
2017-01-20T01:41:36.109Z,97.14
2017-01-20T01:42:17.799Z,96.86
2017-01-20T01:42:59.648Z,96.67
2017-01-20T01:43:41.282Z,96.67
2017-01-20T01:44:23.016Z,96.67
2017-01-20T01:46:17.817Z,96.67
2017-01-20T01:46:59.338Z,96.86
2017-01-20T01:49:20.050Z,96.95
2017-01-20T01:50:01.589Z,96.95
2017-01-20T01:50:43.178Z,96.95
2017-01-20T01:52:43.217Z,97.05
2017-01-20T01:53:24.848Z,97.05
2017-01-20T01:54:06.510Z,97.24
2017-01-20T01:54:48.287Z,97.14
2017-01-20T01:55:30.025Z,97.05
2017-01-20T01:56:11.756Z,96.77
2017-01-20T01:56:53.429Z,97.14
2017-01-20T01:57:34.876Z,97.05
2017-01-20T01:58:16.407Z,96.95
2017-01-20T01:58:58.088Z,97.05
2017-01-20T01:59:39.852Z,96.86
2017-01-20T02:00:20.675Z,97.05
2017-01-20T02:01:01.202Z,96.86
2017-01-20T02:01:41.736Z,96.95
2017-01-20T02:02:22.265Z,96.95
2017-01-20T02:03:02.794Z,97.99
2017-01-20T02:03:43.311Z,97.99
2017-01-20T02:04:23.847Z,98.18
2017-01-20T02:05:04.375Z,97.99
2017-01-20T02:05:44.897Z,97.99
2017-01-20T02:06:25.426Z,97.99
2017-01-20T02:07:05.981Z,97.99
2017-01-20T02:07:46.510Z,97.52
2017-01-20T02:08:27.040Z,97.71
2017-01-20T02:09:07.565Z,97.71
2017-01-20T02:09:48.097Z,97.61
2017-01-20T02:10:28.629Z,97.99
2017-01-20T02:11:09.154Z,97.71
2017-01-20T02:11:49.680Z,97.8
2017-01-20T02:12:30.203Z,97.61
2017-01-20T02:13:10.735Z,97.71
2017-01-20T02:13:51.259Z,97.8
2017-01-20T02:14:31.796Z,97.8
2017-01-20T02:15:12.323Z,97.8
2017-01-20T02:15:52.842Z,97.8
2017-01-20T02:16:33.376Z,97.99
2017-01-20T02:17:13.905Z,97.8
2017-01-20T02:17:54.434Z,97.71
2017-01-20T02:18:34.959Z,97.61
2017-01-20T02:19:15.485Z,97.8
2017-01-20T02:19:56.010Z,97.99
2017-01-20T02:20:36.535Z,97.8
2017-01-20T02:21:17.059Z,97.8
2017-01-20T02:21:57.586Z,97.8
2017-01-20T02:22:38.117Z,97.99
2017-01-20T02:23:18.650Z,97.61
2017-01-20T02:23:59.169Z,97.61
2017-01-20T02:24:39.694Z,97.8
2017-01-20T02:25:20.224Z,97.61
2017-01-20T02:26:00.751Z,97.61
2017-01-20T02:26:41.281Z,97.61
2017-01-20T02:27:21.808Z,97.8
2017-01-20T02:28:02.331Z,97.71
2017-01-20T02:28:42.860Z,97.66
2017-01-20T02:29:23.393Z,97.85
2017-01-20T02:30:03.928Z,97.66
2017-01-20T02:30:44.443Z,97.56
2017-01-20T02:31:24.975Z,97.56
2017-01-20T02:32:05.504Z,97.71
2017-01-20T02:32:46.022Z,97.85
2017-01-20T02:33:26.540Z,97.71
2017-01-20T02:34:07.072Z,97.8
2017-01-20T02:34:47.606Z,97.61
2017-01-20T02:35:28.137Z,97.66
2017-01-20T02:36:08.664Z,97.71
2017-01-20T02:36:49.195Z,97.66
2017-01-20T02:37:29.718Z,97.66
2017-01-20T02:38:10.254Z,97.66
2017-01-20T02:38:50.787Z,97.56
2017-01-20T02:39:31.295Z,97.66
2017-01-20T02:40:11.826Z,97.75
2017-01-20T02:40:52.349Z,97.66
2017-01-20T02:41:32.868Z,97.66
2017-01-20T02:42:13.394Z,97.66
2017-01-20T02:42:53.921Z,97.71
2017-01-20T02:43:34.457Z,97.66
2017-01-20T02:44:14.987Z,97.56
2017-01-20T02:44:55.499Z,97.38
2017-01-20T02:45:36.034Z,97.47
2017-01-20T02:46:16.564Z,97.38
2017-01-20T02:46:57.083Z,97.38
2017-01-20T02:47:37.611Z,97.56
2017-01-20T02:48:18.132Z,97.38
2017-01-20T02:48:58.658Z,97.75
2017-01-20T02:49:39.189Z,97.47
2017-01-20T02:50:19.716Z,97.47
2017-01-20T02:51:00.244Z,97.66
2017-01-20T02:51:40.778Z,97.52
2017-01-20T02:52:21.308Z,97.38
2017-01-20T02:53:01.839Z,97.75
2017-01-20T02:53:42.368Z,97.56
2017-01-20T02:54:22.890Z,97.75
2017-01-20T02:55:03.454Z,97.75
2017-01-20T02:55:43.980Z,97.75
2017-01-20T02:56:24.511Z,97.75
2017-01-20T02:57:05.043Z,97.66
2017-01-20T02:57:45.572Z,97.56
2017-01-20T02:58:26.093Z,97.38
2017-01-20T02:59:06.620Z,97.75
2017-01-20T02:59:47.158Z,97.75
2017-01-20T03:00:27.686Z,97.56
2017-01-20T03:01:08.206Z,97.56
2017-01-20T03:01:48.740Z,97.94
2017-01-20T03:02:29.270Z,97.56
2017-01-20T03:03:09.809Z,97.56
2017-01-20T03:03:50.335Z,97.56
2017-01-20T03:04:30.858Z,97.56
2017-01-20T03:05:11.396Z,97.56
2017-01-20T03:05:51.923Z,97.56
2017-01-20T03:06:32.451Z,97.56
2017-01-20T03:07:12.980Z,97.56
2017-01-20T03:07:53.519Z,97.38
2017-01-20T03:08:34.036Z,97.56
2017-01-20T03:09:14.570Z,97.75
2017-01-20T03:09:55.097Z,97.66
2017-01-20T03:10:35.624Z,97.47
2017-01-20T03:11:16.151Z,97.38
2017-01-20T03:11:56.691Z,97.56
2017-01-20T03:12:37.216Z,97.56
2017-01-20T03:13:17.729Z,97.38
2017-01-20T03:13:58.263Z,97.75
2017-01-20T03:14:38.784Z,97.66
2017-01-20T03:15:19.318Z,97.75
2017-01-20T03:15:59.832Z,97.47
2017-01-20T03:16:40.355Z,97.75
2017-01-20T03:17:20.881Z,97.38
2017-01-20T03:18:01.410Z,97.56
2017-01-20T03:18:41.946Z,97.56
2017-01-20T03:19:22.464Z,97.75
2017-01-20T03:20:03.001Z,97.66
2017-01-20T03:20:43.542Z,97.85
2017-01-20T03:21:24.076Z,98.13
2017-01-20T03:22:04.604Z,98.04
2017-01-20T03:22:45.135Z,98.13
2017-01-20T03:23:25.653Z,98.23
2017-01-20T03:24:06.184Z,98.41
2017-01-20T03:24:46.706Z,98.23
2017-01-20T03:25:27.230Z,97.94
2017-01-20T03:26:07.756Z,97.94
2017-01-20T03:26:48.287Z,98.04
2017-01-20T03:27:28.806Z,98.04
2017-01-20T03:28:09.322Z,98.51
2017-01-20T03:28:49.844Z,98.04
2017-01-20T03:29:30.383Z,98.6
2017-01-20T03:30:10.913Z,98.04
2017-01-20T03:30:51.438Z,98.04
2017-01-20T03:31:31.966Z,98.13
2017-01-20T03:32:12.501Z,97.94
2017-01-20T03:32:53.031Z,97.94
2017-01-20T03:33:33.545Z,98.32
2017-01-20T03:34:14.073Z,98.04
2017-01-20T03:34:54.600Z,98.13
2017-01-20T03:35:35.134Z,98.41
2017-01-20T03:36:15.659Z,98.41
2017-01-20T03:36:56.191Z,97.85
2017-01-20T03:37:36.725Z,97.94
2017-01-20T03:38:17.249Z,97.94
2017-01-20T03:38:57.784Z,98.41
2017-01-20T03:39:38.313Z,97.94
2017-01-20T03:40:18.836Z,98.41
2017-01-20T03:40:59.365Z,98.23
2017-01-20T03:41:39.893Z,98.23
2017-01-20T03:42:20.416Z,98.23
2017-01-20T03:43:00.944Z,98.23
2017-01-20T03:43:41.474Z,98.23
2017-01-20T03:44:22.004Z,97.85
2017-01-20T03:45:02.538Z,97.94
2017-01-20T03:45:43.066Z,97.94
2017-01-20T03:46:23.599Z,97.94
2017-01-20T03:47:04.112Z,98.13
2017-01-20T03:47:44.658Z,97.94
2017-01-20T03:48:25.182Z,98.13
2017-01-20T03:49:05.713Z,98.04
2017-01-20T03:49:46.239Z,97.75
2017-01-20T03:50:26.769Z,97.75
2017-01-20T03:51:07.296Z,97.94
2017-01-20T03:51:47.820Z,97.75
2017-01-20T03:52:28.346Z,97.85
2017-01-20T03:53:08.872Z,97.94
2017-01-20T03:53:49.400Z,98.41
2017-01-20T03:54:29.928Z,98.23
2017-01-20T03:55:10.450Z,98.32
2017-01-20T03:55:50.972Z,98.41
2017-01-20T03:56:31.496Z,97.94
2017-01-20T03:57:12.046Z,97.94
2017-01-20T03:57:52.575Z,97.85
2017-01-20T03:58:33.102Z,98.41
2017-01-20T03:59:13.626Z,97.94
2017-01-20T03:59:54.155Z,97.75
2017-01-20T04:00:34.682Z,97.94
2017-01-20T04:01:15.204Z,97.94
2017-01-20T04:01:55.733Z,98.04
2017-01-20T04:02:36.261Z,97.94
2017-01-20T04:03:16.792Z,97.94
2017-01-20T04:03:57.323Z,98.13
2017-01-20T04:04:37.857Z,98.23
2017-01-20T04:05:18.386Z,97.94
2017-01-20T04:05:58.915Z,98.13
2017-01-20T04:06:39.443Z,98.23
2017-01-20T04:07:19.978Z,98.13
2017-01-20T04:08:00.505Z,98.13
2017-01-20T04:08:41.036Z,98.04
2017-01-20T04:09:21.596Z,97.75
2017-01-20T04:10:02.117Z,97.75
2017-01-20T04:10:42.641Z,97.94
2017-01-20T04:11:23.176Z,98.41
2017-01-20T04:12:03.706Z,98.04
2017-01-20T04:12:44.238Z,97.94
2017-01-20T04:13:24.767Z,98.41
2017-01-20T04:14:05.302Z,98.41
2017-01-20T04:14:45.830Z,97.94
2017-01-20T04:15:26.358Z,97.94
2017-01-20T04:16:06.893Z,98.13
2017-01-20T04:16:47.419Z,97.94
2017-01-20T04:17:27.955Z,97.94
2017-01-20T04:18:08.484Z,98.13
2017-01-20T04:18:49.013Z,97.94
2017-01-20T04:19:29.525Z,98.13
2017-01-20T04:20:10.055Z,97.75
2017-01-20T04:20:50.587Z,97.94
2017-01-20T04:21:31.110Z,97.75
2017-01-20T04:22:11.634Z,97.85
2017-01-20T04:22:52.164Z,97.94
2017-01-20T04:23:32.699Z,98.13
2017-01-20T04:24:13.222Z,98.04
2017-01-20T04:24:53.746Z,98.04
2017-01-20T04:25:34.275Z,98.13
2017-01-20T04:26:14.807Z,97.94
2017-01-20T04:26:55.335Z,97.94
2017-01-20T04:27:35.853Z,97.75
2017-01-20T04:28:16.381Z,98.04
2017-01-20T04:28:56.906Z,97.94
2017-01-20T04:29:37.437Z,98.04
2017-01-20T04:30:17.964Z,98.51
2017-01-20T04:30:58.556Z,98.41
2017-01-20T04:31:39.047Z,97.94
2017-01-20T04:32:19.578Z,98.32
2017-01-20T04:33:00.109Z,98.23
2017-01-20T04:33:40.639Z,98.23
2017-01-20T04:34:21.168Z,98.13
2017-01-20T04:35:01.697Z,98.04
2017-01-20T04:35:42.227Z,98.13
2017-01-20T04:36:22.763Z,98.32
2017-01-20T04:37:03.279Z,98.32
2017-01-20T04:37:43.819Z,98.23
2017-01-20T04:38:24.344Z,98.13
2017-01-20T04:39:04.880Z,98.13
2017-01-20T04:39:45.416Z,98.13
2017-01-20T04:40:25.950Z,98.6
2017-01-20T04:41:06.474Z,98.13
2017-01-20T04:41:47.009Z,98.13
2017-01-20T04:42:27.533Z,98.13
2017-01-20T04:43:08.082Z,98.23
2017-01-20T04:43:48.624Z,98.32
2017-01-20T04:44:29.149Z,97.94
2017-01-20T04:45:09.676Z,97.94
2017-01-20T04:45:50.204Z,97.94
2017-01-20T04:46:30.739Z,98.13
2017-01-20T04:47:11.273Z,98.04
2017-01-20T04:47:51.785Z,98.13
2017-01-20T04:48:32.318Z,98.6
2017-01-20T04:49:12.851Z,98.79
2017-01-20T04:49:53.386Z,98.32
2017-01-20T04:50:33.924Z,98.13
2017-01-20T04:51:14.458Z,98.6
2017-01-20T04:51:55.005Z,98.13
2017-01-20T04:52:35.530Z,98.23
2017-01-20T04:53:16.062Z,98.6
2017-01-20T04:53:56.590Z,98.32
2017-01-20T04:54:37.123Z,98.04
2017-01-20T04:55:17.652Z,98.13
2017-01-20T04:55:58.177Z,98.04
2017-01-20T04:56:38.705Z,98.6
2017-01-20T04:57:19.231Z,98.13
2017-01-20T04:57:59.776Z,97.94
2017-01-20T04:58:40.306Z,98.23
2017-01-20T04:59:20.832Z,98.13
2017-01-20T05:00:01.357Z,98.32
2017-01-20T05:00:41.963Z,98.51
2017-01-20T05:01:22.489Z,98.32
2017-01-20T05:02:03.019Z,98.32
2017-01-20T05:02:43.538Z,98.32
2017-01-20T05:03:24.064Z,98.79
2017-01-20T05:04:04.592Z,98.41
2017-01-20T05:04:45.126Z,98.32
2017-01-20T05:05:25.651Z,98.41
2017-01-20T05:06:06.177Z,98.32
2017-01-20T05:06:46.710Z,98.51
2017-01-20T05:07:27.241Z,98.41
2017-01-20T05:08:07.772Z,98.79
2017-01-20T05:08:48.299Z,98.7
2017-01-20T05:09:28.827Z,98.32
2017-01-20T05:10:09.351Z,98.7
2017-01-20T05:10:49.888Z,98.51
2017-01-20T05:11:30.423Z,98.51
2017-01-20T05:12:11.025Z,98.51
2017-01-20T05:12:51.548Z,98.51
2017-01-20T05:13:32.077Z,98.41
2017-01-20T05:14:12.608Z,98.7
2017-01-20T05:14:53.201Z,97.94
2017-01-20T05:15:33.788Z,97.94
2017-01-20T05:16:14.311Z,97.94
2017-01-20T05:16:54.841Z,98.13
2017-01-20T05:17:35.373Z,98.04
2017-01-20T05:18:15.923Z,97.94
2017-01-20T05:18:56.447Z,98.13
2017-01-20T05:19:36.979Z,97.94
2017-01-20T05:20:17.507Z,97.94
2017-01-20T05:20:58.034Z,98.04
2017-01-20T05:21:38.562Z,97.75
2017-01-20T05:22:19.103Z,97.94
2017-01-20T05:22:59.631Z,97.94
2017-01-20T05:23:40.161Z,97.94
2017-01-20T05:24:20.688Z,97.94
2017-01-20T05:25:01.228Z,97.75
2017-01-20T05:25:41.759Z,98.51
2017-01-20T05:26:22.305Z,97.94
2017-01-20T05:27:02.838Z,97.75
2017-01-20T05:27:43.375Z,98.13
2017-01-20T05:28:23.912Z,98.13
2017-01-20T05:29:04.497Z,98.23
2017-01-20T05:29:45.035Z,98.41
2017-01-20T05:30:25.602Z,98.51
2017-01-20T05:31:06.290Z,98.32
2017-01-20T05:31:46.921Z,98.32
2017-01-20T05:32:27.620Z,98.41
2017-01-20T05:33:08.213Z,98.7
2017-01-20T05:34:57.155Z,98.6
2017-01-20T05:35:37.769Z,98.51
2017-01-20T05:36:18.331Z,98.32
2017-01-20T05:36:58.922Z,98.79
2017-01-20T05:37:39.624Z,98.51
2017-01-20T05:38:20.398Z,98.51
2017-01-20T05:39:01.095Z,98.7
2017-01-20T05:39:41.662Z,98.7
2017-01-20T05:40:22.212Z,98.51
2017-01-20T05:41:02.777Z,98.51
2017-01-20T05:41:43.317Z,98.51
2017-01-20T05:42:23.964Z,98.32
2017-01-20T05:43:04.581Z,98.6
2017-01-20T05:43:45.231Z,98.32
2017-01-20T05:44:25.802Z,98.41
2017-01-20T05:45:06.430Z,98.6
2017-01-20T05:45:47.076Z,98.51
2017-01-20T05:46:27.556Z,98.6
2017-01-20T05:47:08.099Z,98.41
2017-01-20T05:47:48.588Z,98.13
2017-01-20T05:48:29.133Z,98.51
2017-01-20T05:49:09.674Z,98.23
2017-01-20T05:49:50.242Z,98.51
2017-01-20T05:50:30.794Z,98.51
2017-01-20T05:51:11.341Z,98.51
2017-01-20T05:51:51.927Z,98.13
2017-01-20T05:52:32.450Z,97.94
2017-01-20T05:53:13.065Z,98.41
2017-01-20T05:53:53.687Z,98.6
2017-01-20T05:54:34.308Z,98.41
2017-01-20T05:55:14.832Z,98.32
2017-01-20T05:55:55.442Z,98.79
2017-01-20T05:56:35.946Z,98.7
2017-01-20T05:57:16.460Z,98.7
2017-01-20T05:57:56.959Z,98.7
2017-01-20T05:58:37.473Z,98.51
2017-01-20T05:59:17.991Z,98.51
2017-01-20T05:59:58.510Z,98.51
2017-01-20T06:00:39.043Z,98.51
2017-01-20T06:01:19.567Z,98.51
2017-01-20T06:02:00.095Z,98.51
2017-01-20T06:02:40.637Z,98.6
2017-01-20T06:03:21.163Z,98.51
2017-01-20T06:04:01.685Z,98.6
2017-01-20T06:04:42.209Z,98.41
2017-01-20T06:05:22.722Z,98.6
2017-01-20T06:06:03.251Z,98.7
2017-01-20T06:06:43.789Z,98.79
2017-01-20T06:07:24.321Z,98.41
2017-01-20T06:08:04.846Z,98.7
2017-01-20T06:08:45.377Z,98.13
2017-01-20T06:09:25.906Z,98.6
2017-01-20T06:10:06.440Z,98.13
2017-01-20T06:10:46.963Z,98.7
2017-01-20T06:11:27.494Z,98.13
2017-01-20T06:12:08.025Z,98.04
2017-01-20T06:12:48.557Z,98.32
2017-01-20T06:13:29.088Z,98.79
2017-01-20T06:14:09.616Z,98.32
2017-01-20T06:14:50.175Z,98.51
2017-01-20T06:15:30.710Z,98.41
2017-01-20T06:16:11.232Z,98.6
2017-01-20T06:16:51.759Z,98.6
2017-01-20T06:17:32.285Z,98.23
2017-01-20T06:18:12.812Z,98.6
2017-01-20T06:18:53.342Z,98.51
2017-01-20T06:19:33.859Z,98.13
2017-01-20T06:20:14.400Z,98.51
2017-01-20T06:20:54.923Z,98.51
2017-01-20T06:21:35.452Z,98.51
2017-01-20T06:22:15.981Z,98.51
2017-01-20T06:22:56.514Z,98.13
2017-01-20T06:23:37.036Z,98.41
2017-01-20T06:24:17.575Z,98.23
2017-01-20T06:24:58.106Z,98.23
2017-01-20T06:25:38.636Z,98.51
2017-01-20T06:26:19.167Z,98.6
2017-01-20T06:26:59.699Z,98.51
2017-01-20T06:27:40.239Z,98.6
2017-01-20T06:28:20.782Z,98.6
2017-01-20T06:29:01.310Z,98.51
2017-01-20T06:29:41.838Z,98.51
2017-01-20T06:30:22.373Z,98.51
2017-01-20T06:31:02.902Z,98.51
2017-01-20T06:31:43.443Z,98.51
2017-01-20T06:32:23.961Z,98.13
2017-01-20T06:33:04.491Z,98.13
2017-01-20T06:33:45.022Z,98.41
2017-01-20T06:34:25.554Z,98.51
2017-01-20T06:35:06.074Z,98.51
2017-01-20T06:35:46.611Z,98.51
2017-01-20T06:36:27.132Z,98.32
2017-01-20T06:37:07.660Z,98.51
2017-01-20T06:37:48.188Z,98.51
2017-01-20T06:38:28.719Z,98.23
2017-01-20T06:39:09.242Z,98.13
2017-01-20T06:39:49.775Z,98.04
2017-01-20T06:40:30.335Z,98.13
2017-01-20T06:42:19.261Z,97.94
2017-01-20T06:42:59.794Z,97.94
2017-01-20T06:43:40.327Z,97.94
2017-01-20T06:44:20.850Z,97.94
2017-01-20T06:45:01.378Z,98.23
2017-01-20T06:45:41.990Z,98.13
2017-01-20T06:46:22.522Z,97.94
2017-01-20T06:47:03.049Z,97.94
2017-01-20T06:47:43.570Z,97.94
2017-01-20T06:48:24.098Z,97.94
2017-01-20T06:49:04.616Z,97.94
2017-01-20T06:49:45.145Z,98.23
2017-01-20T06:50:25.674Z,97.85
2017-01-20T06:51:06.194Z,97.85
2017-01-20T06:51:46.723Z,98.41
2017-01-20T06:52:27.240Z,98.23
2017-01-20T06:53:07.768Z,98.23
2017-01-20T06:53:48.299Z,97.94
2017-01-20T06:54:28.816Z,98.32
2017-01-20T06:55:09.345Z,98.41
2017-01-20T06:55:49.862Z,97.94
2017-01-20T06:56:30.388Z,97.75
2017-01-20T06:57:10.906Z,97.94
2017-01-20T06:57:51.437Z,98.13
2017-01-20T06:58:33.029Z,97.94
2017-01-20T06:59:13.558Z,98.23
2017-01-20T06:59:54.094Z,98.51
2017-01-20T07:00:34.625Z,98.51
2017-01-20T07:01:15.152Z,98.51
2017-01-20T07:01:55.679Z,98.13
2017-01-20T07:02:36.188Z,98.13
2017-01-20T07:03:16.718Z,98.51
2017-01-20T07:03:57.250Z,97.94
2017-01-20T07:04:37.766Z,97.94
2017-01-20T07:05:18.310Z,97.94
2017-01-20T07:05:58.848Z,98.13
2017-01-20T07:06:39.376Z,98.13
2017-01-20T07:07:19.978Z,98.23
2017-01-20T07:08:00.510Z,97.94
2017-01-20T07:08:41.035Z,98.13
2017-01-20T07:09:21.561Z,97.85
2017-01-20T07:10:02.096Z,97.75
2017-01-20T07:10:42.626Z,98.41
2017-01-20T07:11:23.159Z,98.41
2017-01-20T07:12:03.724Z,97.94
2017-01-20T07:12:44.249Z,97.94
2017-01-20T07:13:24.781Z,97.94
2017-01-20T07:14:05.314Z,98.13
2017-01-20T07:14:45.840Z,97.85
2017-01-20T07:15:26.370Z,98.13
2017-01-20T07:16:06.897Z,98.23
2017-01-20T07:16:47.428Z,98.13
2017-01-20T07:17:28.234Z,98.51
2017-01-20T07:18:09.766Z,98.51
2017-01-20T07:18:50.323Z,98.51
2017-01-20T07:19:30.849Z,98.51
2017-01-20T07:20:11.382Z,98.41
2017-01-20T07:20:53.626Z,98.13
2017-01-20T07:21:34.164Z,98.79
2017-01-20T07:22:14.685Z,98.51
2017-01-20T07:22:55.205Z,98.51
2017-01-20T07:23:35.725Z,98.6
2017-01-20T07:24:16.245Z,98.6
2017-01-20T07:24:56.783Z,98.6
2017-01-20T07:25:37.329Z,98.6
2017-01-20T07:26:17.860Z,98.6
2017-01-20T07:26:58.402Z,98.51
2017-01-20T07:27:38.927Z,98.51
2017-01-20T07:28:19.446Z,98.23
2017-01-20T07:28:59.977Z,98.41
2017-01-20T07:29:40.510Z,98.41
2017-01-20T07:30:21.037Z,98.32
2017-01-20T07:31:01.567Z,97.94
2017-01-20T07:31:42.093Z,98.13
2017-01-20T07:32:22.625Z,98.51
2017-01-20T07:33:03.151Z,98.41
2017-01-20T07:33:43.689Z,98.51
2017-01-20T07:34:24.220Z,98.51
2017-01-20T07:35:04.745Z,98.51
2017-01-20T07:35:45.342Z,98.41
2017-01-20T07:36:25.873Z,98.51
2017-01-20T07:37:06.396Z,98.51
2017-01-20T07:37:46.929Z,98.6
2017-01-20T07:38:27.458Z,98.51
2017-01-20T07:39:07.997Z,98.13
2017-01-20T07:39:48.525Z,98.41
2017-01-20T07:40:29.048Z,98.41
2017-01-20T07:41:09.579Z,97.94
2017-01-20T07:41:50.094Z,98.23
2017-01-20T07:42:30.623Z,98.13
2017-01-20T07:43:11.147Z,98.13
2017-01-20T07:43:51.680Z,97.85
2017-01-20T07:44:32.202Z,98.13
2017-01-20T07:45:12.734Z,97.94
2017-01-20T07:45:53.264Z,97.94
2017-01-20T07:46:33.795Z,98.13
2017-01-20T07:47:14.324Z,98.23
2017-01-20T07:47:54.856Z,97.85
2017-01-20T07:48:35.380Z,98.13
2017-01-20T07:49:15.903Z,98.13
2017-01-20T07:49:56.432Z,98.13
2017-01-20T07:50:36.961Z,97.94
2017-01-20T07:51:17.499Z,97.94
2017-01-20T07:51:58.028Z,98.13
2017-01-20T07:52:38.555Z,98.23
2017-01-20T07:53:19.084Z,98.13
2017-01-20T07:53:59.599Z,98.41
2017-01-20T07:54:40.125Z,98.13
2017-01-20T07:55:20.653Z,98.13
2017-01-20T07:56:01.165Z,98.6
2017-01-20T07:56:41.693Z,98.6
2017-01-20T07:57:22.204Z,98.51
2017-01-20T07:58:02.736Z,98.51
2017-01-20T07:58:43.260Z,98.41
2017-01-20T07:59:23.799Z,98.51
2017-01-20T08:00:04.329Z,98.51
2017-01-20T08:00:44.858Z,98.41
2017-01-20T08:01:25.381Z,98.51
2017-01-20T08:02:05.915Z,98.51
2017-01-20T08:02:46.448Z,98.51
2017-01-20T08:03:26.981Z,98.6
2017-01-20T08:04:07.506Z,98.6
2017-01-20T08:04:48.039Z,98.13
2017-01-20T08:05:28.569Z,98.51
2017-01-20T08:06:09.100Z,98.13
2017-01-20T08:06:49.656Z,98.41
2017-01-20T08:07:30.182Z,98.41
2017-01-20T08:08:10.710Z,98.51
2017-01-20T08:08:51.241Z,98.13
2017-01-20T08:09:31.770Z,98.41
2017-01-20T08:10:12.400Z,98.23
2017-01-20T08:10:52.929Z,98.13
2017-01-20T08:11:33.455Z,98.13
2017-01-20T08:12:13.987Z,98.13
2017-01-20T08:12:54.516Z,97.94
2017-01-20T08:13:35.043Z,98.13
2017-01-20T08:14:15.565Z,98.13
2017-01-20T08:14:56.089Z,98.13
2017-01-20T08:15:36.617Z,97.85
2017-01-20T08:16:17.145Z,98.13
2017-01-20T08:16:57.686Z,97.94
2017-01-20T08:17:38.198Z,98.04
2017-01-20T08:18:18.723Z,97.94
2017-01-20T08:18:59.252Z,98.41
2017-01-20T08:19:39.781Z,98.41
2017-01-20T08:20:20.304Z,98.41
2017-01-20T08:21:00.831Z,98.41
2017-01-20T08:21:41.354Z,97.94
2017-01-20T08:22:21.888Z,98.41
2017-01-20T08:23:02.420Z,98.23
2017-01-20T08:23:43.022Z,98.23
2017-01-20T08:24:23.548Z,98.23
2017-01-20T08:25:04.071Z,98.13
2017-01-20T08:25:44.609Z,98.32
2017-01-20T08:26:25.119Z,98.13
2017-01-20T08:27:05.656Z,98.04
2017-01-20T08:27:46.181Z,98.13
2017-01-20T08:28:26.707Z,98.04
2017-01-20T08:29:07.236Z,98.13
2017-01-20T08:29:47.769Z,98.13
2017-01-20T08:30:28.289Z,97.66
2017-01-20T08:31:08.814Z,98.04
2017-01-20T08:31:49.343Z,97.56
2017-01-20T08:32:29.870Z,97.56
2017-01-20T08:33:10.393Z,97.38
2017-01-20T08:33:50.924Z,97.75
2017-01-20T08:34:31.437Z,97.75
2017-01-20T08:35:11.965Z,97.56
2017-01-20T08:35:52.498Z,97.56
2017-01-20T08:36:33.024Z,98.04
2017-01-20T08:37:13.554Z,97.75
2017-01-20T08:37:54.080Z,97.56
2017-01-20T08:38:34.604Z,97.94
2017-01-20T08:39:15.122Z,97.47
2017-01-20T08:39:55.645Z,98.04
2017-01-20T08:40:36.174Z,97.94
2017-01-20T08:41:16.700Z,98.04
2017-01-20T08:41:57.225Z,96.72
2017-01-20T08:42:37.754Z,96.91
2017-01-20T08:43:18.284Z,96.91
2017-01-20T08:43:58.819Z,96.91
2017-01-20T08:44:39.351Z,96.95
2017-01-20T08:45:19.875Z,96.86
2017-01-20T08:46:00.404Z,96.95
2017-01-20T08:46:40.935Z,97.05
2017-01-20T08:47:21.461Z,97.24
2017-01-20T08:48:01.998Z,97.05
2017-01-20T08:48:42.527Z,97.05
2017-01-20T08:49:23.047Z,96.86
2017-01-20T08:50:03.578Z,97.05
2017-01-20T08:50:44.091Z,97.14
2017-01-20T08:51:24.623Z,97.05
2017-01-20T08:52:05.150Z,96.67
2017-01-20T08:52:45.676Z,96.95
2017-01-20T08:53:26.208Z,96.39
2017-01-20T08:54:06.732Z,96.39
2017-01-20T08:54:47.262Z,96.48
2017-01-20T08:55:27.791Z,96.86
2017-01-20T08:56:08.323Z,96.67
2017-01-20T08:56:48.851Z,96.58
2017-01-20T08:57:29.381Z,96.58
2017-01-20T08:58:09.901Z,96.58
2017-01-20T08:58:50.434Z,96.86
2017-01-20T08:59:30.960Z,96.86
2017-01-20T09:00:11.492Z,96.58
2017-01-20T09:00:52.017Z,96.77
2017-01-20T09:01:32.552Z,96.58
2017-01-20T09:02:13.083Z,96.95
2017-01-20T09:02:53.617Z,96.58
2017-01-20T09:03:34.137Z,96.58
2017-01-20T09:04:14.666Z,96.01
2017-01-20T09:04:55.192Z,96.2
2017-01-20T09:05:35.729Z,96.2
2017-01-20T09:06:16.257Z,96.2
2017-01-20T09:06:56.774Z,96.3
2017-01-20T09:07:37.317Z,96.25
2017-01-20T09:08:17.851Z,96.34
2017-01-20T09:08:58.382Z,95.59
2017-01-20T09:09:38.911Z,95.59
2017-01-20T09:10:19.439Z,95.68
2017-01-20T09:10:59.972Z,95.59
2017-01-20T09:11:40.492Z,95.59
2017-01-20T09:12:21.031Z,95.21
2017-01-20T09:13:01.568Z,95.03
2017-01-20T09:13:42.093Z,94.65
2017-01-20T09:14:22.621Z,94.84
2017-01-20T09:15:03.156Z,94.74
2017-01-20T09:15:43.690Z,94.41
2017-01-20T09:16:24.221Z,94.51
2017-01-20T09:17:04.762Z,94.22